sensor_id;sensor_type;location;lat;lon;timestamp;pressure;altitude;pressure_sealevel;temperature;humidity
23170;BME280;11753;43.144;24.714;2023-03-15T00:00:14;98435.44;;;5.87;58.12
23170;BME280;11753;43.144;24.714;2023-03-15T00:01:19;98437.53;;;5.83;58.26
23170;BME280;11753;43.144;24.714;2023-03-15T00:02:20;98430.97;;;5.79;58.21
23170;BME280;11753;43.144;24.714;2023-03-15T00:03:22;98430.97;;;5.79;58.29
23170;BME280;11753;43.144;24.714;2023-03-15T00:04:26;98425.44;;;5.82;58.43
23170;BME280;11753;43.144;24.714;2023-03-15T00:05:27;98431.66;;;5.81;58.27
23170;BME280;11753;43.144;24.714;2023-03-15T00:06:33;98420.06;;;5.84;58.17
23170;BME280;11753;43.144;24.714;2023-03-15T00:07:34;98429.41;;;5.86;57.96
23170;BME280;11753;43.144;24.714;2023-03-15T00:08:35;98423.00;;;5.80;58.25
23170;BME280;11753;43.144;24.714;2023-03-15T00:09:36;98423.66;;;5.83;58.62
23170;BME280;11753;43.144;24.714;2023-03-15T00:10:44;98415.66;;;5.84;57.88
23170;BME280;11753;43.144;24.714;2023-03-15T00:11:45;98422.19;;;5.80;57.65
23170;BME280;11753;43.144;24.714;2023-03-15T00:12:46;98419.63;;;5.88;57.47
23170;BME280;11753;43.144;24.714;2023-03-15T00:13:47;98426.78;;;5.86;57.49
23170;BME280;11753;43.144;24.714;2023-03-15T00:14:48;98418.50;;;5.91;57.24
23170;BME280;11753;43.144;24.714;2023-03-15T00:15:51;98410.53;;;5.92;57.13
23170;BME280;11753;43.144;24.714;2023-03-15T00:16:53;98405.66;;;5.97;56.94
23170;BME280;11753;43.144;24.714;2023-03-15T00:17:54;98410.66;;;6.09;56.76
23170;BME280;11753;43.144;24.714;2023-03-15T00:18:55;98401.63;;;6.03;56.78
23170;BME280;11753;43.144;24.714;2023-03-15T00:19:59;98407.34;;;6.06;56.75
23170;BME280;11753;43.144;24.714;2023-03-15T00:21:00;98403.97;;;6.14;56.67
23170;BME280;11753;43.144;24.714;2023-03-15T00:22:04;98395.84;;;5.73;57.78
23170;BME280;11753;43.144;24.714;2023-03-15T00:23:05;98394.91;;;5.21;60.16
23170;BME280;11753;43.144;24.714;2023-03-15T00:24:06;98399.84;;;5.24;60.22
23170;BME280;11753;43.144;24.714;2023-03-15T00:25:08;98399.38;;;5.29;60.08
23170;BME280;11753;43.144;24.714;2023-03-15T00:26:09;98394.53;;;5.34;59.95
23170;BME280;11753;43.144;24.714;2023-03-15T00:27:10;98395.06;;;5.37;59.63
23170;BME280;11753;43.144;24.714;2023-03-15T00:28:11;98388.81;;;5.30;59.90
23170;BME280;11753;43.144;24.714;2023-03-15T00:29:12;98389.31;;;5.34;59.67
23170;BME280;11753;43.144;24.714;2023-03-15T00:30:13;98388.22;;;5.36;59.69
23170;BME280;11753;43.144;24.714;2023-03-15T00:31:24;98384.31;;;5.40;59.69
23170;BME280;11753;43.144;24.714;2023-03-15T00:32:25;98381.63;;;5.50;59.44
23170;BME280;11753;43.144;24.714;2023-03-15T00:33:26;98388.34;;;5.52;59.26
23170;BME280;11753;43.144;24.714;2023-03-15T00:34:27;98377.91;;;5.52;59.23
23170;BME280;11753;43.144;24.714;2023-03-15T00:35:28;98381.50;;;5.51;59.27
23170;BME280;11753;43.144;24.714;2023-03-15T00:36:28;98383.41;;;5.49;59.48
23170;BME280;11753;43.144;24.714;2023-03-15T00:37:30;98384.09;;;5.51;59.55
23170;BME280;11753;43.144;24.714;2023-03-15T00:38:32;98377.25;;;5.50;59.69
23170;BME280;11753;43.144;24.714;2023-03-15T00:39:33;98378.72;;;5.53;59.74
23170;BME280;11753;43.144;24.714;2023-03-15T00:40:37;98375.94;;;5.55;59.42
23170;BME280;11753;43.144;24.714;2023-03-15T00:41:39;98375.66;;;5.58;59.08
23170;BME280;11753;43.144;24.714;2023-03-15T00:42:40;98369.47;;;5.59;59.05
23170;BME280;11753;43.144;24.714;2023-03-15T00:43:42;98364.59;;;5.64;58.89
23170;BME280;11753;43.144;24.714;2023-03-15T00:44:46;98364.69;;;5.72;58.66
23170;BME280;11753;43.144;24.714;2023-03-15T00:45:47;98361.03;;;5.65;58.61
23170;BME280;11753;43.144;24.714;2023-03-15T00:46:49;98357.44;;;5.66;58.74
23170;BME280;11753;43.144;24.714;2023-03-15T00:47:50;98366.91;;;5.67;58.62
23170;BME280;11753;43.144;24.714;2023-03-15T00:48:52;98365.88;;;5.60;58.86
23170;BME280;11753;43.144;24.714;2023-03-15T00:49:53;98357.72;;;5.63;58.61
23170;BME280;11753;43.144;24.714;2023-03-15T00:51:12;98361.97;;;5.64;58.27
23170;BME280;11753;43.144;24.714;2023-03-15T00:52:14;98356.75;;;5.64;58.34
23170;BME280;11753;43.144;24.714;2023-03-15T00:53:15;98353.81;;;5.59;58.25
23170;BME280;11753;43.144;24.714;2023-03-15T00:54:15;98353.66;;;5.60;58.33
23170;BME280;11753;43.144;24.714;2023-03-15T00:55:17;98361.84;;;5.65;57.94
23170;BME280;11753;43.144;24.714;2023-03-15T00:56:26;98364.81;;;5.70;57.72
23170;BME280;11753;43.144;24.714;2023-03-15T00:57:27;98366.31;;;5.73;57.67
23170;BME280;11753;43.144;24.714;2023-03-15T00:58:28;98361.59;;;5.76;57.72
23170;BME280;11753;43.144;24.714;2023-03-15T00:59:31;98365.00;;;5.77;57.71
23170;BME280;11753;43.144;24.714;2023-03-15T01:00:34;98356.53;;;5.75;57.59
23170;BME280;11753;43.144;24.714;2023-03-15T01:01:35;98366.03;;;5.84;57.14
23170;BME280;11753;43.144;24.714;2023-03-15T01:02:38;98364.94;;;5.87;56.92
23170;BME280;11753;43.144;24.714;2023-03-15T01:03:39;98367.69;;;5.85;56.84
23170;BME280;11753;43.144;24.714;2023-03-15T01:04:41;98362.78;;;5.82;56.51
23170;BME280;11753;43.144;24.714;2023-03-15T01:05:42;98364.41;;;5.83;56.43
23170;BME280;11753;43.144;24.714;2023-03-15T01:06:45;98375.47;;;5.77;56.45
23170;BME280;11753;43.144;24.714;2023-03-15T01:07:46;98367.34;;;5.80;56.30
23170;BME280;11753;43.144;24.714;2023-03-15T01:08:47;98371.25;;;5.84;56.24
23170;BME280;11753;43.144;24.714;2023-03-15T01:09:48;98370.75;;;5.80;56.27
23170;BME280;11753;43.144;24.714;2023-03-15T01:10:49;98377.63;;;5.82;56.06
23170;BME280;11753;43.144;24.714;2023-03-15T01:11:50;98367.69;;;5.85;56.08
23170;BME280;11753;43.144;24.714;2023-03-15T01:12:51;98370.22;;;5.77;56.23
23170;BME280;11753;43.144;24.714;2023-03-15T01:13:54;98372.84;;;5.77;56.28
23170;BME280;11753;43.144;24.714;2023-03-15T01:14:55;98370.94;;;5.79;56.43
23170;BME280;11753;43.144;24.714;2023-03-15T01:15:55;98365.00;;;5.77;56.33
23170;BME280;11753;43.144;24.714;2023-03-15T01:16:56;98369.25;;;5.78;56.27
23170;BME280;11753;43.144;24.714;2023-03-15T01:17:57;98366.25;;;5.65;56.50
23170;BME280;11753;43.144;24.714;2023-03-15T01:18:59;98374.13;;;5.73;56.41
23170;BME280;11753;43.144;24.714;2023-03-15T01:20:00;98365.13;;;5.67;56.48
23170;BME280;11753;43.144;24.714;2023-03-15T01:21:01;98365.63;;;5.71;56.54
23170;BME280;11753;43.144;24.714;2023-03-15T01:22:02;98360.41;;;5.71;56.20
23170;BME280;11753;43.144;24.714;2023-03-15T01:23:03;98362.34;;;5.69;56.14
23170;BME280;11753;43.144;24.714;2023-03-15T01:24:04;98358.75;;;5.70;56.24
23170;BME280;11753;43.144;24.714;2023-03-15T01:25:06;98359.25;;;5.65;56.43
23170;BME280;11753;43.144;24.714;2023-03-15T01:26:11;98369.53;;;5.67;56.55
23170;BME280;11753;43.144;24.714;2023-03-15T01:27:12;98362.34;;;5.69;56.63
23170;BME280;11753;43.144;24.714;2023-03-15T01:28:14;98362.19;;;5.70;56.31
23170;BME280;11753;43.144;24.714;2023-03-15T01:29:15;98362.88;;;5.72;56.32
23170;BME280;11753;43.144;24.714;2023-03-15T01:30:17;98355.81;;;5.65;56.72
23170;BME280;11753;43.144;24.714;2023-03-15T01:31:23;98368.88;;;5.65;56.75
23170;BME280;11753;43.144;24.714;2023-03-15T01:32:25;98375.19;;;5.62;56.77
23170;BME280;11753;43.144;24.714;2023-03-15T01:33:27;98357.88;;;5.61;56.77
23170;BME280;11753;43.144;24.714;2023-03-15T01:34:28;98363.88;;;5.53;57.04
23170;BME280;11753;43.144;24.714;2023-03-15T01:35:29;98361.91;;;5.56;56.89
23170;BME280;11753;43.144;24.714;2023-03-15T01:36:30;98360.28;;;5.55;56.94
23170;BME280;11753;43.144;24.714;2023-03-15T01:37:31;98362.53;;;5.49;57.23
23170;BME280;11753;43.144;24.714;2023-03-15T01:38:34;98362.03;;;5.46;57.39
23170;BME280;11753;43.144;24.714;2023-03-15T01:39:34;98362.25;;;5.52;57.22
23170;BME280;11753;43.144;24.714;2023-03-15T01:40:43;98361.63;;;5.59;56.77
23170;BME280;11753;43.144;24.714;2023-03-15T01:41:47;98365.81;;;5.51;56.95
23170;BME280;11753;43.144;24.714;2023-03-15T01:43:14;98366.81;;;5.50;57.03
23170;BME280;11753;43.144;24.714;2023-03-15T01:44:16;98374.91;;;5.47;57.20
23170;BME280;11753;43.144;24.714;2023-03-15T01:45:51;98368.44;;;5.51;57.13
23170;BME280;11753;43.144;24.714;2023-03-15T01:46:54;98372.38;;;5.56;57.05
23170;BME280;11753;43.144;24.714;2023-03-15T01:47:55;98376.59;;;5.57;57.11
23170;BME280;11753;43.144;24.714;2023-03-15T01:49:23;98369.59;;;5.57;56.93
23170;BME280;11753;43.144;24.714;2023-03-15T01:50:25;98370.00;;;5.44;57.21
23170;BME280;11753;43.144;24.714;2023-03-15T01:51:42;98379.75;;;5.42;57.36
23170;BME280;11753;43.144;24.714;2023-03-15T01:52:44;98375.16;;;5.36;57.55
23170;BME280;11753;43.144;24.714;2023-03-15T01:53:49;98370.28;;;5.41;57.46
23170;BME280;11753;43.144;24.714;2023-03-15T01:56:05;98371.09;;;5.42;57.34
23170;BME280;11753;43.144;24.714;2023-03-15T01:57:32;98381.03;;;5.38;57.39
23170;BME280;11753;43.144;24.714;2023-03-15T01:58:30;98381.63;;;5.32;57.73
23170;BME280;11753;43.144;24.714;2023-03-15T01:59:35;98379.78;;;5.24;58.00
23170;BME280;11753;43.144;24.714;2023-03-15T02:00:38;98380.09;;;5.21;58.25
23170;BME280;11753;43.144;24.714;2023-03-15T02:01:41;98368.22;;;5.27;58.00
23170;BME280;11753;43.144;24.714;2023-03-15T02:02:52;98375.28;;;5.35;58.06
23170;BME280;11753;43.144;24.714;2023-03-15T02:04:00;98375.88;;;5.29;58.13
23170;BME280;11753;43.144;24.714;2023-03-15T02:05:08;98376.41;;;5.32;58.01
23170;BME280;11753;43.144;24.714;2023-03-15T02:06:16;98377.84;;;5.27;58.05
23170;BME280;11753;43.144;24.714;2023-03-15T02:07:20;98380.28;;;5.28;58.08
23170;BME280;11753;43.144;24.714;2023-03-15T02:08:26;98378.16;;;5.23;58.28
23170;BME280;11753;43.144;24.714;2023-03-15T02:10:10;98383.59;;;5.30;58.12
23170;BME280;11753;43.144;24.714;2023-03-15T02:11:12;98387.84;;;5.31;58.21
23170;BME280;11753;43.144;24.714;2023-03-15T02:12:13;98386.31;;;5.29;58.10
23170;BME280;11753;43.144;24.714;2023-03-15T02:13:17;98387.44;;;5.26;58.12
23170;BME280;11753;43.144;24.714;2023-03-15T02:14:19;98385.66;;;5.27;58.12
23170;BME280;11753;43.144;24.714;2023-03-15T02:15:21;98383.06;;;5.27;58.15
23170;BME280;11753;43.144;24.714;2023-03-15T02:16:25;98386.13;;;5.22;58.21
23170;BME280;11753;43.144;24.714;2023-03-15T02:17:35;98381.94;;;5.29;58.13
23170;BME280;11753;43.144;24.714;2023-03-15T02:18:37;98381.94;;;5.29;58.17
23170;BME280;11753;43.144;24.714;2023-03-15T02:19:48;98393.56;;;5.17;58.63
23170;BME280;11753;43.144;24.714;2023-03-15T02:22:52;98386.25;;;5.03;59.03
23170;BME280;11753;43.144;24.714;2023-03-15T02:27:38;98375.59;;;5.14;59.12
23170;BME280;11753;43.144;24.714;2023-03-15T02:28:39;98376.06;;;5.09;59.14
23170;BME280;11753;43.144;24.714;2023-03-15T02:29:41;98376.50;;;5.05;59.24
23170;BME280;11753;43.144;24.714;2023-03-15T02:30:43;98367.41;;;5.09;59.17
23170;BME280;11753;43.144;24.714;2023-03-15T02:31:44;98364.34;;;5.13;59.33
23170;BME280;11753;43.144;24.714;2023-03-15T02:32:45;98377.47;;;5.04;59.54
23170;BME280;11753;43.144;24.714;2023-03-15T02:33:49;98369.47;;;5.05;59.58
23170;BME280;11753;43.144;24.714;2023-03-15T02:34:51;98381.88;;;5.03;59.80
23170;BME280;11753;43.144;24.714;2023-03-15T02:35:52;98369.31;;;5.07;59.77
23170;BME280;11753;43.144;24.714;2023-03-15T02:36:53;98375.25;;;5.09;59.57
23170;BME280;11753;43.144;24.714;2023-03-15T02:37:55;98374.25;;;5.10;59.73
23170;BME280;11753;43.144;24.714;2023-03-15T02:38:56;98371.66;;;5.10;59.81
23170;BME280;11753;43.144;24.714;2023-03-15T02:39:57;98373.66;;;5.16;59.63
23170;BME280;11753;43.144;24.714;2023-03-15T02:40:58;98377.31;;;5.23;59.49
23170;BME280;11753;43.144;24.714;2023-03-15T02:42:00;98365.25;;;5.22;59.31
23170;BME280;11753;43.144;24.714;2023-03-15T02:43:04;98375.53;;;5.23;59.50
23170;BME280;11753;43.144;24.714;2023-03-15T02:44:08;98370.47;;;5.22;59.46
23170;BME280;11753;43.144;24.714;2023-03-15T02:45:11;98380.28;;;5.28;59.30
23170;BME280;11753;43.144;24.714;2023-03-15T02:46:12;98371.78;;;5.26;59.30
23170;BME280;11753;43.144;24.714;2023-03-15T02:47:20;98376.78;;;5.19;59.30
23170;BME280;11753;43.144;24.714;2023-03-15T02:48:22;98377.31;;;5.23;59.31
23170;BME280;11753;43.144;24.714;2023-03-15T02:49:27;98380.91;;;5.22;59.33
23170;BME280;11753;43.144;24.714;2023-03-15T02:50:31;98377.91;;;5.17;59.46
23170;BME280;11753;43.144;24.714;2023-03-15T02:51:32;98378.19;;;5.14;59.49
23170;BME280;11753;43.144;24.714;2023-03-15T02:52:33;98373.88;;;5.05;59.92
23170;BME280;11753;43.144;24.714;2023-03-15T02:53:34;98378.59;;;5.01;60.00
23170;BME280;11753;43.144;24.714;2023-03-15T02:54:35;98373.81;;;4.96;60.04
23170;BME280;11753;43.144;24.714;2023-03-15T02:55:37;98375.81;;;5.03;59.93
23170;BME280;11753;43.144;24.714;2023-03-15T02:56:37;98358.63;;;5.10;59.85
23170;BME280;11753;43.144;24.714;2023-03-15T02:57:38;98360.09;;;5.12;59.28
23170;BME280;11753;43.144;24.714;2023-03-15T02:58:39;98363.16;;;5.08;59.53
23170;BME280;11753;43.144;24.714;2023-03-15T02:59:40;98354.81;;;5.04;59.66
23170;BME280;11753;43.144;24.714;2023-03-15T03:00:44;98360.91;;;5.13;59.46
23170;BME280;11753;43.144;24.714;2023-03-15T03:01:45;98360.41;;;5.09;59.39
23170;BME280;11753;43.144;24.714;2023-03-15T03:02:47;98361.22;;;5.10;59.36
23170;BME280;11753;43.144;24.714;2023-03-15T03:03:48;98357.31;;;5.14;59.45
23170;BME280;11753;43.144;24.714;2023-03-15T03:04:49;98359.50;;;5.01;59.75
23170;BME280;11753;43.144;24.714;2023-03-15T03:05:52;98365.09;;;5.06;59.59
23170;BME280;11753;43.144;24.714;2023-03-15T03:06:53;98361.38;;;5.08;59.44
23170;BME280;11753;43.144;24.714;2023-03-15T03:07:54;98360.69;;;5.06;59.60
23170;BME280;11753;43.144;24.714;2023-03-15T03:08:55;98355.84;;;5.11;59.56
23170;BME280;11753;43.144;24.714;2023-03-15T03:09:56;98361.72;;;5.13;59.43
23170;BME280;11753;43.144;24.714;2023-03-15T03:10:57;98357.31;;;5.14;59.47
23170;BME280;11753;43.144;24.714;2023-03-15T03:11:58;98349.38;;;5.15;59.39
23170;BME280;11753;43.144;24.714;2023-03-15T03:12:58;98351.41;;;5.21;58.99
23170;BME280;11753;43.144;24.714;2023-03-15T03:14:01;98345.63;;;5.18;59.25
23170;BME280;11753;43.144;24.714;2023-03-15T03:15:02;98347.66;;;5.24;59.14
23170;BME280;11753;43.144;24.714;2023-03-15T03:16:04;98347.13;;;5.20;59.20
23170;BME280;11753;43.144;24.714;2023-03-15T03:17:05;98341.41;;;5.17;59.15
23170;BME280;11753;43.144;24.714;2023-03-15T03:18:06;98343.13;;;5.08;59.35
23170;BME280;11753;43.144;24.714;2023-03-15T03:19:08;98331.25;;;5.14;59.39
23170;BME280;11753;43.144;24.714;2023-03-15T03:20:10;98337.50;;;5.21;59.25
23170;BME280;11753;43.144;24.714;2023-03-15T03:21:13;98333.94;;;5.22;59.21
23170;BME280;11753;43.144;24.714;2023-03-15T03:22:14;98335.88;;;5.20;59.27
23170;BME280;11753;43.144;24.714;2023-03-15T03:23:15;98329.38;;;5.24;58.92
23170;BME280;11753;43.144;24.714;2023-03-15T03:24:16;98330.66;;;5.20;59.15
23170;BME280;11753;43.144;24.714;2023-03-15T03:25:17;98330.53;;;5.21;59.03
23170;BME280;11753;43.144;24.714;2023-03-15T03:26:18;98333.63;;;5.25;58.80
23170;BME280;11753;43.144;24.714;2023-03-15T03:27:20;98331.78;;;5.17;59.10
23170;BME280;11753;43.144;24.714;2023-03-15T03:28:25;98329.31;;;4.98;59.73
23170;BME280;11753;43.144;24.714;2023-03-15T03:29:27;98333.28;;;5.02;59.58
23170;BME280;11753;43.144;24.714;2023-03-15T03:30:27;98327.38;;;4.82;60.29
23170;BME280;11753;43.144;24.714;2023-03-15T03:31:28;98330.66;;;4.84;60.43
23170;BME280;11753;43.144;24.714;2023-03-15T03:32:29;98329.00;;;4.83;60.53
23170;BME280;11753;43.144;24.714;2023-03-15T03:33:30;98330.66;;;4.84;60.62
23170;BME280;11753;43.144;24.714;2023-03-15T03:34:31;98334.31;;;4.74;60.81
23170;BME280;11753;43.144;24.714;2023-03-15T03:35:32;98338.78;;;4.81;60.86
23170;BME280;11753;43.144;24.714;2023-03-15T03:36:33;98327.69;;;4.79;61.03
23170;BME280;11753;43.144;24.714;2023-03-15T03:37:34;98325.75;;;4.81;60.95
23170;BME280;11753;43.144;24.714;2023-03-15T03:38:35;98336.41;;;4.88;60.98
23170;BME280;11753;43.144;24.714;2023-03-15T03:39:36;98328.72;;;4.86;60.80
23170;BME280;11753;43.144;24.714;2023-03-15T03:40:38;98325.97;;;4.88;60.87
23170;BME280;11753;43.144;24.714;2023-03-15T03:41:39;98335.03;;;4.84;60.79
23170;BME280;11753;43.144;24.714;2023-03-15T03:42:40;98334.00;;;4.77;60.81
23170;BME280;11753;43.144;24.714;2023-03-15T03:43:41;98336.75;;;4.75;61.08
23170;BME280;11753;43.144;24.714;2023-03-15T03:44:42;98333.72;;;4.80;60.91
23170;BME280;11753;43.144;24.714;2023-03-15T03:45:43;98335.28;;;4.73;61.09
23170;BME280;11753;43.144;24.714;2023-03-15T03:46:44;98335.69;;;4.68;61.22
23170;BME280;11753;43.144;24.714;2023-03-15T03:47:45;98340.91;;;4.68;61.41
23170;BME280;11753;43.144;24.714;2023-03-15T03:48:46;98335.22;;;4.55;61.63
23170;BME280;11753;43.144;24.714;2023-03-15T03:49:46;98334.72;;;4.51;61.99
23170;BME280;11753;43.144;24.714;2023-03-15T03:50:47;98337.75;;;4.47;62.13
23170;BME280;11753;43.144;24.714;2023-03-15T03:51:48;98337.09;;;4.45;62.38
23170;BME280;11753;43.144;24.714;2023-03-15T03:52:49;98331.78;;;4.36;62.83
23170;BME280;11753;43.144;24.714;2023-03-15T03:53:50;98332.84;;;4.44;62.75
23170;BME280;11753;43.144;24.714;2023-03-15T03:54:51;98334.22;;;4.38;62.62
23170;BME280;11753;43.144;24.714;2023-03-15T03:55:52;98333.69;;;4.34;62.88
23170;BME280;11753;43.144;24.714;2023-03-15T03:56:54;98333.69;;;4.34;62.96
23170;BME280;11753;43.144;24.714;2023-03-15T03:57:55;98333.41;;;4.37;63.02
23170;BME280;11753;43.144;24.714;2023-03-15T03:58:56;98339.19;;;4.31;63.22
23170;BME280;11753;43.144;24.714;2023-03-15T03:59:57;98335.53;;;4.24;63.44
23170;BME280;11753;43.144;24.714;2023-03-15T04:00:58;98333.19;;;4.21;63.46
23170;BME280;11753;43.144;24.714;2023-03-15T04:01:59;98335.81;;;4.21;63.68
23170;BME280;11753;43.144;24.714;2023-03-15T04:03:00;98339.25;;;4.22;63.62
23170;BME280;11753;43.144;24.714;2023-03-15T04:04:01;98335.69;;;4.13;64.11
23170;BME280;11753;43.144;24.714;2023-03-15T04:05:02;98333.50;;;4.18;64.07
23170;BME280;11753;43.144;24.714;2023-03-15T04:06:03;98330.91;;;4.18;64.09
23170;BME280;11753;43.144;24.714;2023-03-15T04:07:04;98326.56;;;4.09;64.69
23170;BME280;11753;43.144;24.714;2023-03-15T04:08:05;98323.66;;;4.12;64.46
23170;BME280;11753;43.144;24.714;2023-03-15T04:09:06;98320.91;;;4.13;64.67
23170;BME280;11753;43.144;24.714;2023-03-15T04:10:08;98328.84;;;4.22;64.13
23170;BME280;11753;43.144;24.714;2023-03-15T04:11:14;98323.63;;;4.22;64.02
23170;BME280;11753;43.144;24.714;2023-03-15T04:12:17;98321.16;;;4.20;64.26
23170;BME280;11753;43.144;24.714;2023-03-15T04:13:19;98316.75;;;4.21;64.43
23170;BME280;11753;43.144;24.714;2023-03-15T04:14:20;98330.41;;;4.32;63.81
23170;BME280;11753;43.144;24.714;2023-03-15T04:15:23;98326.56;;;4.36;63.55
23170;BME280;11753;43.144;24.714;2023-03-15T04:16:24;98329.84;;;4.38;63.54
23170;BME280;11753;43.144;24.714;2023-03-15T04:17:25;98332.53;;;4.47;63.32
23170;BME280;11753;43.144;24.714;2023-03-15T04:18:26;98329.25;;;4.45;63.30
23170;BME280;11753;43.144;24.714;2023-03-15T04:19:28;98335.53;;;4.52;63.14
23170;BME280;11753;43.144;24.714;2023-03-15T04:20:30;98328.69;;;4.51;63.00
23170;BME280;11753;43.144;24.714;2023-03-15T04:21:34;98328.69;;;4.51;63.00
23170;BME280;11753;43.144;24.714;2023-03-15T04:22:35;98329.75;;;4.58;62.99
23170;BME280;11753;43.144;24.714;2023-03-15T04:23:37;98323.56;;;4.59;62.82
23170;BME280;11753;43.144;24.714;2023-03-15T04:24:38;98320.81;;;4.60;62.78
23170;BME280;11753;43.144;24.714;2023-03-15T04:25:39;98328.19;;;4.65;62.74
23170;BME280;11753;43.144;24.714;2023-03-15T04:26:40;98329.25;;;4.72;62.54
23170;BME280;11753;43.144;24.714;2023-03-15T04:27:41;98324.25;;;4.79;62.01
23170;BME280;11753;43.144;24.714;2023-03-15T04:28:41;98333.00;;;4.60;62.58
23170;BME280;11753;43.144;24.714;2023-03-15T04:29:43;98326.53;;;4.64;62.64
23170;BME280;11753;43.144;24.714;2023-03-15T04:30:46;98328.84;;;4.67;62.38
23170;BME280;11753;43.144;24.714;2023-03-15T04:31:47;98327.88;;;4.68;62.42
23170;BME280;11753;43.144;24.714;2023-03-15T04:32:48;98332.88;;;4.61;62.82
23170;BME280;11753;43.144;24.714;2023-03-15T04:33:49;98326.91;;;4.69;62.67
23170;BME280;11753;43.144;24.714;2023-03-15T04:34:51;98330.19;;;4.71;62.48
23170;BME280;11753;43.144;24.714;2023-03-15T04:35:55;98331.84;;;4.72;62.55
23170;BME280;11753;43.144;24.714;2023-03-15T04:36:56;98324.97;;;4.71;62.57
23170;BME280;11753;43.144;24.714;2023-03-15T04:37:58;98328.53;;;4.70;62.66
23170;BME280;11753;43.144;24.714;2023-03-15T04:38:59;98319.47;;;4.74;62.69
23170;BME280;11753;43.144;24.714;2023-03-15T04:40:07;98329.00;;;4.83;62.40
23170;BME280;11753;43.144;24.714;2023-03-15T04:41:08;98327.06;;;4.85;62.15
23170;BME280;11753;43.144;24.714;2023-03-15T04:42:10;98327.53;;;4.81;62.21
23170;BME280;11753;43.144;24.714;2023-03-15T04:43:11;98330.97;;;4.81;62.08
23170;BME280;11753;43.144;24.714;2023-03-15T04:44:12;98337.28;;;4.79;62.31
23170;BME280;11753;43.144;24.714;2023-03-15T04:45:16;98332.09;;;4.79;62.33
23170;BME280;11753;43.144;24.714;2023-03-15T04:46:16;98338.94;;;4.80;62.22
23170;BME280;11753;43.144;24.714;2023-03-15T04:47:17;98334.22;;;4.83;62.20
23170;BME280;11753;43.144;24.714;2023-03-15T04:48:18;98333.25;;;4.84;62.38
23170;BME280;11753;43.144;24.714;2023-03-15T04:49:20;98330.38;;;4.87;62.19
23170;BME280;11753;43.144;24.714;2023-03-15T04:50:23;98332.00;;;4.88;62.26
23170;BME280;11753;43.144;24.714;2023-03-15T04:51:25;98333.22;;;4.94;62.21
23170;BME280;11753;43.144;24.714;2023-03-15T04:52:26;98331.69;;;4.91;62.10
23170;BME280;11753;43.144;24.714;2023-03-15T04:53:27;98328.72;;;4.86;61.89
23170;BME280;11753;43.144;24.714;2023-03-15T04:54:28;98331.69;;;4.91;62.13
23170;BME280;11753;43.144;24.714;2023-03-15T04:55:29;98330.06;;;4.90;61.76
23170;BME280;11753;43.144;24.714;2023-03-15T04:56:30;98329.41;;;4.88;61.83
23170;BME280;11753;43.144;24.714;2023-03-15T04:57:31;98328.41;;;4.89;62.03
23170;BME280;11753;43.144;24.714;2023-03-15T04:58:32;98327.06;;;4.85;61.89
23170;BME280;11753;43.144;24.714;2023-03-15T04:59:32;98333.41;;;4.83;61.99
23170;BME280;11753;43.144;24.714;2023-03-15T05:00:33;98322.53;;;4.87;62.04
23170;BME280;11753;43.144;24.714;2023-03-15T05:01:34;98321.72;;;4.87;62.17
23170;BME280;11753;43.144;24.714;2023-03-15T05:02:35;98324.09;;;4.80;62.31
23170;BME280;11753;43.144;24.714;2023-03-15T05:03:39;98320.66;;;4.97;61.71
23170;BME280;11753;43.144;24.714;2023-03-15T05:04:40;98325.91;;;4.80;62.29
23170;BME280;11753;43.144;24.714;2023-03-15T05:05:43;98327.97;;;4.76;62.59
23170;BME280;11753;43.144;24.714;2023-03-15T05:06:44;98329.00;;;4.83;62.46
23170;BME280;11753;43.144;24.714;2023-03-15T05:07:45;98328.28;;;4.73;62.30
23170;BME280;11753;43.144;24.714;2023-03-15T05:08:46;98320.88;;;4.68;62.60
23170;BME280;11753;43.144;24.714;2023-03-15T05:09:47;98323.34;;;4.70;62.83
23170;BME280;11753;43.144;24.714;2023-03-15T05:10:48;98313.28;;;4.75;62.59
23170;BME280;11753;43.144;24.714;2023-03-15T05:11:50;98312.47;;;4.75;62.48
23170;BME280;11753;43.144;24.714;2023-03-15T05:12:51;98310.69;;;4.75;62.40
23170;BME280;11753;43.144;24.714;2023-03-15T05:13:51;98311.41;;;4.85;62.11
23170;BME280;11753;43.144;24.714;2023-03-15T05:14:52;98309.13;;;4.82;62.23
23170;BME280;11753;43.144;24.714;2023-03-15T05:15:53;98306.50;;;4.82;62.25
23170;BME280;11753;43.144;24.714;2023-03-15T05:16:55;98300.91;;;4.77;62.23
23170;BME280;11753;43.144;24.714;2023-03-15T05:17:57;98299.00;;;4.79;61.93
23170;BME280;11753;43.144;24.714;2023-03-15T05:18:58;98298.03;;;4.80;62.19
23170;BME280;11753;43.144;24.714;2023-03-15T05:19:59;98309.56;;;4.78;61.95
23170;BME280;11753;43.144;24.714;2023-03-15T05:21:09;98296.41;;;4.79;62.47
23170;BME280;11753;43.144;24.714;2023-03-15T05:22:11;98301.16;;;4.84;62.16
23170;BME280;11753;43.144;24.714;2023-03-15T05:23:13;98302.66;;;4.86;62.18
23170;BME280;11753;43.144;24.714;2023-03-15T05:24:15;98305.34;;;4.94;62.22
23170;BME280;11753;43.144;24.714;2023-03-15T05:25:16;98297.28;;;5.06;62.01
23170;BME280;11753;43.144;24.714;2023-03-15T05:26:17;98298.03;;;5.16;61.24
23170;BME280;11753;43.144;24.714;2023-03-15T05:27:18;98291.06;;;5.24;61.20
23170;BME280;11753;43.144;24.714;2023-03-15T05:28:21;98292.91;;;5.32;60.78
23170;BME280;11753;43.144;24.714;2023-03-15T05:29:23;98301.72;;;5.31;60.72
23170;BME280;11753;43.144;24.714;2023-03-15T05:30:25;98292.88;;;5.24;60.84
23170;BME280;11753;43.144;24.714;2023-03-15T05:31:26;98297.81;;;5.35;60.78
23170;BME280;11753;43.144;24.714;2023-03-15T05:32:28;98294.88;;;5.30;60.76
23170;BME280;11753;43.144;24.714;2023-03-15T05:33:34;98293.56;;;5.34;60.47
23170;BME280;11753;43.144;24.714;2023-03-15T05:34:35;98295.91;;;5.37;60.41
23170;BME280;11753;43.144;24.714;2023-03-15T05:35:36;98293.63;;;5.42;60.46
23170;BME280;11753;43.144;24.714;2023-03-15T05:36:42;98293.94;;;5.39;60.42
23170;BME280;11753;43.144;24.714;2023-03-15T05:37:50;98299.59;;;5.52;59.92